sensor_id;sensor_type;location;lat;lon;timestamp;P1;durP1;ratioP1;P2;durP2;ratioP2
2177;SDS011;1095;50.992;6.798;2023-07-28T00:01:40;5.07;;;3.10;;
2177;SDS011;1095;50.992;6.798;2023-07-28T00:04:07;4.68;;;3.38;;
2177;SDS011;1095;50.992;6.798;2023-07-28T00:06:35;3.42;;;2.72;;
2177;SDS011;1095;50.992;6.798;2023-07-28T00:09:02;4.65;;;3.10;;
2177;SDS011;1095;50.992;6.798;2023-07-28T00:11:29;5.30;;;3.00;;
2177;SDS011;1095;50.992;6.798;2023-07-28T00:13:55;5.60;;;3.50;;
2177;SDS011;1095;50.992;6.798;2023-07-28T00:16:25;4.40;;;3.10;;
2177;SDS011;1095;50.992;6.798;2023-07-28T00:18:51;5.88;;;3.10;;
2177;SDS011;1095;50.992;6.798;2023-07-28T00:21:18;4.65;;;3.35;;
2177;SDS011;1095;50.992;6.798;2023-07-28T00:23:45;3.75;;;3.05;;
2177;SDS011;1095;50.992;6.798;2023-07-28T00:26:11;3.05;;;2.80;;
2177;SDS011;1095;50.992;6.798;2023-07-28T00:28:38;2.75;;;2.45;;
2177;SDS011;1095;50.992;6.798;2023-07-28T00:31:04;4.47;;;2.75;;
2177;SDS011;1095;50.992;6.798;2023-07-28T00:33:32;3.65;;;2.85;;
2177;SDS011;1095;50.992;6.798;2023-07-28T00:35:59;9.90;;;3.20;;
2177;SDS011;1095;50.992;6.798;2023-07-28T00:38:26;4.10;;;2.88;;
2177;SDS011;1095;50.992;6.798;2023-07-28T00:40:52;7.05;;;2.67;;
2177;SDS011;1095;50.992;6.798;2023-07-28T00:43:19;4.13;;;2.42;;
2177;SDS011;1095;50.992;6.798;2023-07-28T00:45:45;3.35;;;2.70;;
2177;SDS011;1095;50.992;6.798;2023-07-28T00:48:12;4.80;;;3.60;;
2177;SDS011;1095;50.992;6.798;2023-07-28T00:50:42;6.50;;;2.60;;
2177;SDS011;1095;50.992;6.798;2023-07-28T00:53:11;3.75;;;2.42;;
2177;SDS011;1095;50.992;6.798;2023-07-28T00:55:38;5.13;;;3.20;;
2177;SDS011;1095;50.992;6.798;2023-07-28T00:58:05;5.57;;;2.70;;
2177;SDS011;1095;50.992;6.798;2023-07-28T01:00:31;5.70;;;2.70;;
2177;SDS011;1095;50.992;6.798;2023-07-28T01:02:58;5.30;;;2.88;;
2177;SDS011;1095;50.992;6.798;2023-07-28T01:05:26;4.60;;;2.95;;
2177;SDS011;1095;50.992;6.798;2023-07-28T01:08:01;3.65;;;2.90;;
2177;SDS011;1095;50.992;6.798;2023-07-28T01:10:32;6.18;;;2.88;;
2177;SDS011;1095;50.992;6.798;2023-07-28T01:12:59;3.60;;;2.80;;
2177;SDS011;1095;50.992;6.798;2023-07-28T01:15:26;3.17;;;2.78;;
2177;SDS011;1095;50.992;6.798;2023-07-28T01:17:53;5.97;;;3.08;;
2177;SDS011;1095;50.992;6.798;2023-07-28T01:20:19;4.50;;;2.67;;
2177;SDS011;1095;50.992;6.798;2023-07-28T01:22:52;3.40;;;2.72;;
2177;SDS011;1095;50.992;6.798;2023-07-28T01:25:32;4.97;;;2.92;;
2177;SDS011;1095;50.992;6.798;2023-07-28T01:28:11;3.97;;;2.50;;
2177;SDS011;1095;50.992;6.798;2023-07-28T01:30:39;4.82;;;3.10;;
2177;SDS011;1095;50.992;6.798;2023-07-28T01:33:06;7.07;;;2.95;;
2177;SDS011;1095;50.992;6.798;2023-07-28T01:35:34;4.88;;;2.85;;
2177;SDS011;1095;50.992;6.798;2023-07-28T01:38:02;4.47;;;2.70;;
2177;SDS011;1095;50.992;6.798;2023-07-28T01:40:29;9.32;;;3.10;;
2177;SDS011;1095;50.992;6.798;2023-07-28T01:42:55;6.38;;;2.60;;
2177;SDS011;1095;50.992;6.798;2023-07-28T01:45:23;7.53;;;2.60;;
2177;SDS011;1095;50.992;6.798;2023-07-28T01:47:50;4.75;;;2.80;;
2177;SDS011;1095;50.992;6.798;2023-07-28T01:50:16;5.25;;;3.13;;
2177;SDS011;1095;50.992;6.798;2023-07-28T01:52:43;3.17;;;2.38;;
2177;SDS011;1095;50.992;6.798;2023-07-28T01:55:10;4.07;;;2.75;;
2177;SDS011;1095;50.992;6.798;2023-07-28T01:57:38;3.72;;;2.45;;
2177;SDS011;1095;50.992;6.798;2023-07-28T02:00:05;3.47;;;2.63;;
2177;SDS011;1095;50.992;6.798;2023-07-28T02:02:34;4.22;;;2.60;;
2177;SDS011;1095;50.992;6.798;2023-07-28T02:05:01;3.50;;;2.80;;
2177;SDS011;1095;50.992;6.798;2023-07-28T02:07:27;5.90;;;2.90;;
2177;SDS011;1095;50.992;6.798;2023-07-28T02:09:54;4.05;;;2.63;;
2177;SDS011;1095;50.992;6.798;2023-07-28T02:12:21;3.65;;;2.72;;
2177;SDS011;1095;50.992;6.798;2023-07-28T02:14:47;4.43;;;2.75;;
2177;SDS011;1095;50.992;6.798;2023-07-28T02:17:14;5.50;;;3.55;;
2177;SDS011;1095;50.992;6.798;2023-07-28T02:19:42;3.63;;;3.13;;
2177;SDS011;1095;50.992;6.798;2023-07-28T02:22:09;4.65;;;3.30;;
2177;SDS011;1095;50.992;6.798;2023-07-28T02:24:36;4.68;;;3.50;;
2177;SDS011;1095;50.992;6.798;2023-07-28T02:27:03;6.63;;;3.80;;
2177;SDS011;1095;50.992;6.798;2023-07-28T02:29:30;5.93;;;3.50;;
2177;SDS011;1095;50.992;6.798;2023-07-28T02:31:56;4.55;;;3.85;;
2177;SDS011;1095;50.992;6.798;2023-07-28T02:34:23;5.93;;;3.30;;
2177;SDS011;1095;50.992;6.798;2023-07-28T02:36:51;4.35;;;3.50;;
2177;SDS011;1095;50.992;6.798;2023-07-28T02:39:17;5.57;;;3.40;;
2177;SDS011;1095;50.992;6.798;2023-07-28T02:41:45;4.40;;;3.17;;
2177;SDS011;1095;50.992;6.798;2023-07-28T02:44:12;4.10;;;3.47;;
2177;SDS011;1095;50.992;6.798;2023-07-28T02:46:38;6.60;;;3.50;;
2177;SDS011;1095;50.992;6.798;2023-07-28T02:49:05;5.47;;;3.35;;
2177;SDS011;1095;50.992;6.798;2023-07-28T02:51:31;4.53;;;3.42;;
2177;SDS011;1095;50.992;6.798;2023-07-28T02:54:00;4.63;;;3.38;;
2177;SDS011;1095;50.992;6.798;2023-07-28T02:56:28;5.38;;;3.60;;
2177;SDS011;1095;50.992;6.798;2023-07-28T02:58:59;4.13;;;3.47;;
2177;SDS011;1095;50.992;6.798;2023-07-28T03:01:26;5.63;;;3.67;;
2177;SDS011;1095;50.992;6.798;2023-07-28T03:03:53;4.78;;;3.65;;
2177;SDS011;1095;50.992;6.798;2023-07-28T03:06:19;4.07;;;3.60;;
2177;SDS011;1095;50.992;6.798;2023-07-28T03:08:46;6.13;;;3.90;;
2177;SDS011;1095;50.992;6.798;2023-07-28T03:11:14;8.27;;;3.85;;
2177;SDS011;1095;50.992;6.798;2023-07-28T03:13:40;7.53;;;4.30;;
2177;SDS011;1095;50.992;6.798;2023-07-28T03:16:07;5.50;;;3.92;;
2177;SDS011;1095;50.992;6.798;2023-07-28T03:18:34;6.95;;;4.13;;
2177;SDS011;1095;50.992;6.798;2023-07-28T03:21:01;6.50;;;4.30;;
2177;SDS011;1095;50.992;6.798;2023-07-28T03:23:28;7.13;;;4.20;;
2177;SDS011;1095;50.992;6.798;2023-07-28T03:25:54;7.57;;;4.30;;
2177;SDS011;1095;50.992;6.798;2023-07-28T03:28:22;6.43;;;4.13;;
2177;SDS011;1095;50.992;6.798;2023-07-28T03:30:49;5.00;;;4.30;;
2177;SDS011;1095;50.992;6.798;2023-07-28T03:33:16;9.20;;;4.68;;
2177;SDS011;1095;50.992;6.798;2023-07-28T03:35:42;8.25;;;4.30;;
2177;SDS011;1095;50.992;6.798;2023-07-28T03:38:09;6.40;;;4.43;;
2177;SDS011;1095;50.992;6.798;2023-07-28T03:40:36;8.13;;;4.30;;
2177;SDS011;1095;50.992;6.798;2023-07-28T03:43:02;5.22;;;4.45;;
2177;SDS011;1095;50.992;6.798;2023-07-28T03:45:30;5.35;;;4.22;;
2177;SDS011;1095;50.992;6.798;2023-07-28T03:47:57;5.72;;;4.00;;
2177;SDS011;1095;50.992;6.798;2023-07-28T03:50:24;4.85;;;4.32;;
2177;SDS011;1095;50.992;6.798;2023-07-28T03:52:51;5.88;;;4.70;;
2177;SDS011;1095;50.992;6.798;2023-07-28T03:55:18;8.95;;;5.00;;
2177;SDS011;1095;50.992;6.798;2023-07-28T03:57:44;6.22;;;4.80;;
2177;SDS011;1095;50.992;6.798;2023-07-28T04:00:11;6.00;;;4.40;;
2177;SDS011;1095;50.992;6.798;2023-07-28T04:02:40;5.05;;;4.53;;
2177;SDS011;1095;50.992;6.798;2023-07-28T04:05:07;9.15;;;5.10;;
2177;SDS011;1095;50.992;6.798;2023-07-28T04:07:34;8.48;;;4.90;;
2177;SDS011;1095;50.992;6.798;2023-07-28T04:10:01;7.15;;;4.75;;
2177;SDS011;1095;50.992;6.798;2023-07-28T04:12:27;6.63;;;4.50;;
2177;SDS011;1095;50.992;6.798;2023-07-28T04:14:54;5.00;;;4.32;;
2177;SDS011;1095;50.992;6.798;2023-07-28T04:17:21;6.18;;;3.70;;
2177;SDS011;1095;50.992;6.798;2023-07-28T04:19:49;4.47;;;4.03;;
2177;SDS011;1095;50.992;6.798;2023-07-28T04:22:15;6.45;;;3.63;;
2177;SDS011;1095;50.992;6.798;2023-07-28T04:24:46;7.32;;;3.95;;
2177;SDS011;1095;50.992;6.798;2023-07-28T04:27:13;7.70;;;3.97;;
2177;SDS011;1095;50.992;6.798;2023-07-28T04:29:39;6.03;;;3.90;;
2177;SDS011;1095;50.992;6.798;2023-07-28T04:32:06;5.03;;;4.28;;
2177;SDS011;1095;50.992;6.798;2023-07-28T04:34:33;6.00;;;4.35;;
2177;SDS011;1095;50.992;6.798;2023-07-28T04:37:01;4.95;;;4.28;;
2177;SDS011;1095;50.992;6.798;2023-07-28T04:39:28;4.60;;;4.20;;
2177;SDS011;1095;50.992;6.798;2023-07-28T04:41:55;5.32;;;4.13;;
2177;SDS011;1095;50.992;6.798;2023-07-28T04:44:22;4.63;;;4.20;;
2177;SDS011;1095;50.992;6.798;2023-07-28T04:46:48;6.35;;;4.95;;
2177;SDS011;1095;50.992;6.798;2023-07-28T04:49:16;5.90;;;4.28;;
2177;SDS011;1095;50.992;6.798;2023-07-28T04:51:42;7.57;;;4.47;;
2177;SDS011;1095;50.992;6.798;2023-07-28T04:54:10;5.20;;;4.60;;
2177;SDS011;1095;50.992;6.798;2023-07-28T04:56:37;5.90;;;5.30;;
2177;SDS011;1095;50.992;6.798;2023-07-28T04:59:04;5.18;;;4.60;;
2177;SDS011;1095;50.992;6.798;2023-07-28T05:01:31;7.20;;;4.55;;
2177;SDS011;1095;50.992;6.798;2023-07-28T05:03:59;6.75;;;5.10;;
2177;SDS011;1095;50.992;6.798;2023-07-28T05:06:28;5.95;;;4.65;;
2177;SDS011;1095;50.992;6.798;2023-07-28T05:08:55;5.65;;;4.75;;
2177;SDS011;1095;50.992;6.798;2023-07-28T05:11:23;5.25;;;4.75;;
2177;SDS011;1095;50.992;6.798;2023-07-28T05:13:50;6.32;;;4.78;;
2177;SDS011;1095;50.992;6.798;2023-07-28T05:16:16;8.57;;;4.90;;
2177;SDS011;1095;50.992;6.798;2023-07-28T05:18:43;7.70;;;4.82;;
2177;SDS011;1095;50.992;6.798;2023-07-28T05:21:10;5.55;;;4.53;;
2177;SDS011;1095;50.992;6.798;2023-07-28T05:23:37;6.22;;;5.10;;
2177;SDS011;1095;50.992;6.798;2023-07-28T05:26:03;8.02;;;4.82;;
2177;SDS011;1095;50.992;6.798;2023-07-28T05:28:33;8.18;;;5.18;;
2177;SDS011;1095;50.992;6.798;2023-07-28T05:31:04;6.93;;;4.50;;
2177;SDS011;1095;50.992;6.798;2023-07-28T05:33:31;7.10;;;3.80;;
2177;SDS011;1095;50.992;6.798;2023-07-28T05:36:01;5.35;;;4.00;;
2177;SDS011;1095;50.992;6.798;2023-07-28T05:38:29;6.22;;;4.30;;
2177;SDS011;1095;50.992;6.798;2023-07-28T05:40:56;3.67;;;3.35;;
2177;SDS011;1095;50.992;6.798;2023-07-28T05:43:23;4.72;;;3.30;;
2177;SDS011;1095;50.992;6.798;2023-07-28T05:45:51;5.78;;;2.83;;
2177;SDS011;1095;50.992;6.798;2023-07-28T05:48:18;2.92;;;2.60;;
2177;SDS011;1095;50.992;6.798;2023-07-28T05:50:45;5.90;;;3.10;;
2177;SDS011;1095;50.992;6.798;2023-07-28T05:53:11;3.72;;;3.00;;
2177;SDS011;1095;50.992;6.798;2023-07-28T05:55:38;3.13;;;2.63;;
2177;SDS011;1095;50.992;6.798;2023-07-28T05:58:05;5.72;;;2.95;;
2177;SDS011;1095;50.992;6.798;2023-07-28T06:00:32;2.88;;;2.67;;
2177;SDS011;1095;50.992;6.798;2023-07-28T06:03:00;4.55;;;2.90;;
2177;SDS011;1095;50.992;6.798;2023-07-28T06:05:26;3.10;;;2.50;;
2177;SDS011;1095;50.992;6.798;2023-07-28T06:07:53;2.67;;;2.45;;
2177;SDS011;1095;50.992;6.798;2023-07-28T06:10:20;4.50;;;3.05;;
2177;SDS011;1095;50.992;6.798;2023-07-28T06:12:46;3.85;;;2.92;;
2177;SDS011;1095;50.992;6.798;2023-07-28T06:15:13;3.35;;;3.05;;
2177;SDS011;1095;50.992;6.798;2023-07-28T06:17:39;3.65;;;2.88;;
2177;SDS011;1095;50.992;6.798;2023-07-28T06:20:09;3.33;;;2.78;;
2177;SDS011;1095;50.992;6.798;2023-07-28T06:22:36;3.22;;;2.90;;
2177;SDS011;1095;50.992;6.798;2023-07-28T06:25:02;4.35;;;3.20;;
2177;SDS011;1095;50.992;6.798;2023-07-28T06:27:30;5.80;;;3.25;;
2177;SDS011;1095;50.992;6.798;2023-07-28T06:29:56;3.83;;;3.47;;
2177;SDS011;1095;50.992;6.798;2023-07-28T06:32:23;4.07;;;3.60;;
2177;SDS011;1095;50.992;6.798;2023-07-28T06:34:50;5.25;;;3.90;;
2177;SDS011;1095;50.992;6.798;2023-07-28T06:37:18;4.28;;;3.60;;
2177;SDS011;1095;50.992;6.798;2023-07-28T06:39:45;8.63;;;3.88;;
2177;SDS011;1095;50.992;6.798;2023-07-28T06:42:11;4.68;;;3.80;;
2177;SDS011;1095;50.992;6.798;2023-07-28T06:44:38;5.28;;;3.70;;
2177;SDS011;1095;50.992;6.798;2023-07-28T06:47:05;5.32;;;4.00;;
2177;SDS011;1095;50.992;6.798;2023-07-28T06:49:31;5.18;;;4.03;;
2177;SDS011;1095;50.992;6.798;2023-07-28T06:51:58;7.38;;;3.90;;
2177;SDS011;1095;50.992;6.798;2023-07-28T06:54:26;5.63;;;3.72;;
2177;SDS011;1095;50.992;6.798;2023-07-28T06:56:53;5.78;;;3.80;;
2177;SDS011;1095;50.992;6.798;2023-07-28T06:59:19;7.35;;;4.28;;
2177;SDS011;1095;50.992;6.798;2023-07-28T07:01:46;5.70;;;3.90;;
2177;SDS011;1095;50.992;6.798;2023-07-28T07:04:12;6.35;;;3.90;;
2177;SDS011;1095;50.992;6.798;2023-07-28T07:06:39;4.97;;;4.30;;
2177;SDS011;1095;50.992;6.798;2023-07-28T07:09:06;7.18;;;4.40;;
2177;SDS011;1095;50.992;6.798;2023-07-28T07:11:35;5.07;;;4.10;;
2177;SDS011;1095;50.992;6.798;2023-07-28T07:14:02;5.70;;;4.35;;
2177;SDS011;1095;50.992;6.798;2023-07-28T07:16:29;6.70;;;4.45;;
2177;SDS011;1095;50.992;6.798;2023-07-28T07:18:57;7.50;;;4.47;;
2177;SDS011;1095;50.992;6.798;2023-07-28T07:21:24;6.13;;;4.57;;
2177;SDS011;1095;50.992;6.798;2023-07-28T07:23:51;5.82;;;4.68;;
2177;SDS011;1095;50.992;6.798;2023-07-28T07:26:18;6.65;;;5.00;;
2177;SDS011;1095;50.992;6.798;2023-07-28T07:28:46;8.98;;;5.10;;
2177;SDS011;1095;50.992;6.798;2023-07-28T07:31:13;9.00;;;6.47;;
2177;SDS011;1095;50.992;6.798;2023-07-28T07:33:39;8.70;;;5.80;;
2177;SDS011;1095;50.992;6.798;2023-07-28T07:36:11;5.97;;;4.78;;
2177;SDS011;1095;50.992;6.798;2023-07-28T07:38:38;8.00;;;5.70;;
2177;SDS011;1095;50.992;6.798;2023-07-28T07:41:05;7.43;;;4.85;;
2177;SDS011;1095;50.992;6.798;2023-07-28T07:43:33;7.75;;;5.25;;
2177;SDS011;1095;50.992;6.798;2023-07-28T07:46:01;5.50;;;4.70;;
2177;SDS011;1095;50.992;6.798;2023-07-28T07:48:27;6.93;;;5.07;;
2177;SDS011;1095;50.992;6.798;2023-07-28T07:50:54;8.30;;;4.85;;
2177;SDS011;1095;50.992;6.798;2023-07-28T07:53:20;7.53;;;5.20;;
2177;SDS011;1095;50.992;6.798;2023-07-28T07:55:47;9.00;;;5.18;;
2177;SDS011;1095;50.992;6.798;2023-07-28T07:58:15;6.78;;;5.18;;
2177;SDS011;1095;50.992;6.798;2023-07-28T08:00:42;5.45;;;4.90;;
2177;SDS011;1095;50.992;6.798;2023-07-28T08:03:10;5.47;;;4.80;;
2177;SDS011;1095;50.992;6.798;2023-07-28T08:05:37;7.38;;;5.07;;
2177;SDS011;1095;50.992;6.798;2023-07-28T08:08:04;6.20;;;5.32;;
2177;SDS011;1095;50.992;6.798;2023-07-28T08:10:32;6.57;;;4.72;;
2177;SDS011;1095;50.992;6.798;2023-07-28T08:12:59;6.55;;;4.70;;
2177;SDS011;1095;50.992;6.798;2023-07-28T08:15:26;6.65;;;4.57;;
2177;SDS011;1095;50.992;6.798;2023-07-28T08:17:52;6.53;;;4.88;;
2177;SDS011;1095;50.992;6.798;2023-07-28T08:20:20;6.05;;;4.53;;
2177;SDS011;1095;50.992;6.798;2023-07-28T08:22:47;6.93;;;4.50;;
2177;SDS011;1095;50.992;6.798;2023-07-28T08:25:14;5.22;;;4.25;;
2177;SDS011;1095;50.992;6.798;2023-07-28T08:27:43;5.32;;;4.30;;
2177;SDS011;1095;50.992;6.798;2023-07-28T08:30:10;7.03;;;4.45;;
2177;SDS011;1095;50.992;6.798;2023-07-28T08:32:37;7.10;;;3.88;;
2177;SDS011;1095;50.992;6.798;2023-07-28T08:35:04;6.65;;;4.10;;
2177;SDS011;1095;50.992;6.798;2023-07-28T08:37:33;5.35;;;4.32;;
2177;SDS011;1095;50.992;6.798;2023-07-28T08:40:00;6.85;;;4.10;;
2177;SDS011;1095;50.992;6.798;2023-07-28T08:42:30;6.03;;;4.00;;
2177;SDS011;1095;50.992;6.798;2023-07-28T08:44:58;6.70;;;3.70;;
2177;SDS011;1095;50.992;6.798;2023-07-28T08:47:25;5.65;;;3.72;;
2177;SDS011;1095;50.992;6.798;2023-07-28T08:50:06;7.90;;;3.90;;
2177;SDS011;1095;50.992;6.798;2023-07-28T08:52:55;6.43;;;3.10;;
2177;SDS011;1095;50.992;6.798;2023-07-28T08:55:35;4.28;;;3.33;;
2177;SDS011;1095;50.992;6.798;2023-07-28T08:58:14;6.00;;;3.13;;
2177;SDS011;1095;50.992;6.798;2023-07-28T09:00:42;5.72;;;3.05;;
2177;SDS011;1095;50.992;6.798;2023-07-28T09:03:09;3.85;;;2.47;;
2177;SDS011;1095;50.992;6.798;2023-07-28T09:05:36;4.05;;;2.30;;
2177;SDS011;1095;50.992;6.798;2023-07-28T09:08:07;2.97;;;2.65;;
2177;SDS011;1095;50.992;6.798;2023-07-28T09:10:40;3.00;;;2.65;;
2177;SDS011;1095;50.992;6.798;2023-07-28T09:13:08;4.38;;;3.03;;
2177;SDS011;1095;50.992;6.798;2023-07-28T09:15:39;5.05;;;2.75;;
2177;SDS011;1095;50.992;6.798;2023-07-28T09:18:22;5.32;;;2.80;;
2177;SDS011;1095;50.992;6.798;2023-07-28T09:26:47;5.47;;;2.83;;
2177;SDS011;1095;50.992;6.798;2023-07-28T09:29:34;2.85;;;2.40;;
2177;SDS011;1095;50.992;6.798;2023-07-28T09:32:07;3.33;;;2.55;;
2177;SDS011;1095;50.992;6.798;2023-07-28T09:34:34;2.15;;;2.03;;
2177;SDS011;1095;50.992;6.798;2023-07-28T09:44:09;4.50;;;2.88;;
2177;SDS011;1095;50.992;6.798;2023-07-28T09:46:45;5.15;;;3.20;;
2177;SDS011;1095;50.992;6.798;2023-07-28T09:49:20;5.78;;;2.85;;
2177;SDS011;1095;50.992;6.798;2023-07-28T09:51:50;2.67;;;2.42;;
2177;SDS011;1095;50.992;6.798;2023-07-28T09:54:25;3.90;;;2.08;;
2177;SDS011;1095;50.992;6.798;2023-07-28T09:57:20;3.85;;;2.45;;
2177;SDS011;1095;50.992;6.798;2023-07-28T09:59:54;5.90;;;2.38;;
2177;SDS011;1095;50.992;6.798;2023-07-28T10:02:29;2.75;;;2.28;;
2177;SDS011;1095;50.992;6.798;2023-07-28T10:05:06;2.95;;;1.85;;
2177;SDS011;1095;50.992;6.798;2023-07-28T10:07:57;3.83;;;1.92;;
2177;SDS011;1095;50.992;6.798;2023-07-28T10:10:31;2.13;;;1.60;;
2177;SDS011;1095;50.992;6.798;2023-07-28T10:13:43;2.05;;;1.88;;
2177;SDS011;1095;50.992;6.798;2023-07-28T10:19:55;2.03;;;1.85;;
2177;SDS011;1095;50.992;6.798;2023-07-28T10:27:20;2.50;;;1.95;;
2177;SDS011;1095;50.992;6.798;2023-07-28T10:34:03;2.17;;;1.60;;
2177;SDS011;1095;50.992;6.798;2023-07-28T10:37:13;2.22;;;2.00;;
2177;SDS011;1095;50.992;6.798;2023-07-28T10:40:29;1.58;;;1.48;;
2177;SDS011;1095;50.992;6.798;2023-07-28T10:43:43;1.73;;;1.63;;
2177;SDS011;1095;50.992;6.798;2023-07-28T10:59:23;3.17;;;1.67;;
2177;SDS011;1095;50.992;6.798;2023-07-28T11:05:36;2.20;;;2.00;;
2177;SDS011;1095;50.992;6.798;2023-07-28T11:08:26;4.45;;;2.10;;
2177;SDS011;1095;50.992;6.798;2023-07-28T11:10:53;3.55;;;2.08;;
2177;SDS011;1095;50.992;6.798;2023-07-28T11:23:34;2.92;;;2.70;;
2177;SDS011;1095;50.992;6.798;2023-07-28T11:26:05;1.75;;;1.65;;
2177;SDS011;1095;50.992;6.798;2023-07-28T11:28:44;1.60;;;1.50;;
2177;SDS011;1095;50.992;6.798;2023-07-28T11:31:11;2.47;;;2.05;;
2177;SDS011;1095;50.992;6.798;2023-07-28T11:33:40;2.20;;;1.98;;
2177;SDS011;1095;50.992;6.798;2023-07-28T11:36:07;1.50;;;1.40;;
2177;SDS011;1095;50.992;6.798;2023-07-28T11:38:34;3.25;;;1.50;;
2177;SDS011;1095;50.992;6.798;2023-07-28T11:41:02;1.42;;;1.33;;
2177;SDS011;1095;50.992;6.798;2023-07-28T11:43:30;2.25;;;1.50;;
2177;SDS011;1095;50.992;6.798;2023-07-28T11:45:56;2.95;;;2.20;;
2177;SDS011;1095;50.992;6.798;2023-07-28T11:48:23;2.25;;;1.80;;
2177;SDS011;1095;50.992;6.798;2023-07-28T11:50:57;1.85;;;1.33;;
2177;SDS011;1095;50.992;6.798;2023-07-28T11:53:25;2.10;;;1.48;;
2177;SDS011;1095;50.992;6.798;2023-07-28T11:55:51;2.38;;;1.60;;
2177;SDS011;1095;50.992;6.798;2023-07-28T11:58:18;2.50;;;1.35;;
2177;SDS011;1095;50.992;6.798;2023-07-28T12:00:48;3.85;;;1.55;;
2177;SDS011;1095;50.992;6.798;2023-07-28T12:03:15;2.30;;;1.42;;
2177;SDS011;1095;50.992;6.798;2023-07-28T12:05:52;9.05;;;2.20;;
2177;SDS011;1095;50.992;6.798;2023-07-28T12:08:35;1.83;;;1.70;;
2177;SDS011;1095;50.992;6.798;2023-07-28T12:11:02;4.15;;;1.67;;
2177;SDS011;1095;50.992;6.798;2023-07-28T12:13:30;2.88;;;1.88;;
2177;SDS011;1095;50.992;6.798;2023-07-28T12:15:57;3.63;;;2.00;;
2177;SDS011;1095;50.992;6.798;2023-07-28T12:18:27;2.28;;;1.98;;
2177;SDS011;1095;50.992;6.798;2023-07-28T12:20:56;3.00;;;2.05;;
2177;SDS011;1095;50.992;6.798;2023-07-28T12:23:24;2.33;;;1.88;;
2177;SDS011;1095;50.992;6.798;2023-07-28T12:25:51;3.08;;;2.00;;
2177;SDS011;1095;50.992;6.798;2023-07-28T12:28:18;3.15;;;2.80;;
2177;SDS011;1095;50.992;6.798;2023-07-28T12:30:45;2.78;;;2.28;;
2177;SDS011;1095;50.992;6.798;2023-07-28T12:33:13;2.15;;;1.95;;
2177;SDS011;1095;50.992;6.798;2023-07-28T12:35:40;2.58;;;2.25;;
2177;SDS011;1095;50.992;6.798;2023-07-28T12:38:07;1.73;;;1.63;;
2177;SDS011;1095;50.992;6.798;2023-07-28T12:40:35;4.30;;;3.80;;
2177;SDS011;1095;50.992;6.798;2023-07-28T12:43:02;4.25;;;2.38;;
2177;SDS011;1095;50.992;6.798;2023-07-28T12:45:29;1.80;;;1.70;;
2177;SDS011;1095;50.992;6.798;2023-07-28T12:47:56;3.33;;;1.92;;
2177;SDS011;1095;50.992;6.798;2023-07-28T12:50:24;4.28;;;2.60;;
2177;SDS011;1095;50.992;6.798;2023-07-28T12:52:50;1.77;;;1.58;;
2177;SDS011;1095;50.992;6.798;2023-07-28T12:55:17;8.32;;;2.50;;
2177;SDS011;1095;50.992;6.798;2023-07-28T12:57:46;1.90;;;1.80;;
2177;SDS011;1095;50.992;6.798;2023-07-28T13:00:13;1.90;;;1.65;;
2177;SDS011;1095;50.992;6.798;2023-07-28T13:02:41;3.20;;;2.20;;
2177;SDS011;1095;50.992;6.798;2023-07-28T13:05:09;3.63;;;2.55;;
2177;SDS011;1095;50.992;6.798;2023-07-28T13:07:37;3.53;;;1.70;;
2177;SDS011;1095;50.992;6.798;2023-07-28T13:10:05;3.63;;;2.25;;
2177;SDS011;1095;50.992;6.798;2023-07-28T13:12:33;3.05;;;2.20;;
2177;SDS011;1095;50.992;6.798;2023-07-28T13:15:01;1.92;;;1.83;;
2177;SDS011;1095;50.992;6.798;2023-07-28T13:17:28;2.13;;;1.92;;
2177;SDS011;1095;50.992;6.798;2023-07-28T13:19:57;1.65;;;1.55;;
2177;SDS011;1095;50.992;6.798;2023-07-28T13:22:24;2.13;;;1.92;;
2177;SDS011;1095;50.992;6.798;2023-07-28T13:24:51;2.85;;;2.08;;
2177;SDS011;1095;50.992;6.798;2023-07-28T13:27:18;1.83;;;1.73;;
2177;SDS011;1095;50.992;6.798;2023-07-28T13:29:45;1.83;;;1.73;;
2177;SDS011;1095;50.992;6.798;2023-07-28T13:32:16;2.15;;;1.95;;
2177;SDS011;1095;50.992;6.798;2023-07-28T13:37:10;3.20;;;1.88;;
2177;SDS011;1095;50.992;6.798;2023-07-28T13:39:37;2.00;;;1.73;;
2177;SDS011;1095;50.992;6.798;2023-07-28T13:42:05;3.00;;;1.23;;
2177;SDS011;1095;50.992;6.798;2023-07-28T13:44:32;3.72;;;1.48;;
2177;SDS011;1095;50.992;6.798;2023-07-28T13:47:09;2.33;;;2.03;;
2177;SDS011;1095;50.992;6.798;2023-07-28T14:00:27;1.38;;;1.20;;
2177;SDS011;1095;50.992;6.798;2023-07-28T14:13:58;2.45;;;1.00;;
2177;SDS011;1095;50.992;6.798;2023-07-28T14:20:02;1.15;;;1.05;;
2177;SDS011;1095;50.992;6.798;2023-07-28T14:22:59;1.50;;;1.20;;
2177;SDS011;1095;50.992;6.798;2023-07-28T14:33:12;0.70;;;0.68;;
2177;SDS011;1095;50.992;6.798;2023-07-28T14:36:07;0.65;;;0.52;;
2177;SDS011;1095;50.992;6.798;2023-07-28T14:38:47;1.10;;;0.63;;
2177;SDS011;1095;50.992;6.798;2023-07-28T14:41:15;2.20;;;1.00;;
2177;SDS011;1095;50.992;6.798;2023-07-28T14:43:43;2.28;;;1.20;;
2177;SDS011;1095;50.992;6.798;2023-07-28T14:46:10;1.27;;;0.63;;
2177;SDS011;1095;50.992;6.798;2023-07-28T14:48:37;0.55;;;0.43;;
2177;SDS011;1095;50.992;6.798;2023-07-28T14:51:03;1.42;;;1.17;;
2177;SDS011;1095;50.992;6.798;2023-07-28T14:53:30;3.10;;;2.83;;
2177;SDS011;1095;50.992;6.798;2023-07-28T14:55:59;11.30;;;3.53;;
2177;SDS011;1095;50.992;6.798;2023-07-28T14:58:26;4.05;;;2.85;;
2177;SDS011;1095;50.992;6.798;2023-07-28T15:00:54;3.88;;;3.30;;
2177;SDS011;1095;50.992;6.798;2023-07-28T15:03:22;3.92;;;3.53;;
2177;SDS011;1095;50.992;6.798;2023-07-28T15:05:49;4.03;;;3.40;;
2177;SDS011;1095;50.992;6.798;2023-07-28T15:08:15;4.05;;;3.50;;
2177;SDS011;1095;50.992;6.798;2023-07-28T15:10:42;6.20;;;3.30;;
2177;SDS011;1095;50.992;6.798;2023-07-28T15:13:09;3.80;;;3.28;;
2177;SDS011;1095;50.992;6.798;2023-07-28T15:15:35;5.72;;;3.30;;
2177;SDS011;1095;50.992;6.798;2023-07-28T15:18:03;5.78;;;3.50;;
2177;SDS011;1095;50.992;6.798;2023-07-28T15:20:30;3.38;;;3.08;;
2177;SDS011;1095;50.992;6.798;2023-07-28T15:22:57;5.10;;;3.10;;
2177;SDS011;1095;50.992;6.798;2023-07-28T15:25:24;5.47;;;3.15;;
2177;SDS011;1095;50.992;6.798;2023-07-28T15:27:50;3.33;;;3.03;;
2177;SDS011;1095;50.992;6.798;2023-07-28T15:30:17;3.33;;;3.00;;
2177;SDS011;1095;50.992;6.798;2023-07-28T15:32:44;3.75;;;2.78;;
2177;SDS011;1095;50.992;6.798;2023-07-28T15:35:12;5.20;;;3.05;;
2177;SDS011;1095;50.992;6.798;2023-07-28T15:37:38;7.85;;;2.75;;
2177;SDS011;1095;50.992;6.798;2023-07-28T15:40:05;3.15;;;2.85;;
2177;SDS011;1095;50.992;6.798;2023-07-28T15:42:32;4.18;;;2.83;;
2177;SDS011;1095;50.992;6.798;2023-07-28T15:44:59;9.55;;;3.70;;
2177;SDS011;1095;50.992;6.798;2023-07-28T15:47:26;9.23;;;3.33;;
2177;SDS011;1095;50.992;6.798;2023-07-28T15:49:55;4.72;;;2.42;;
2177;SDS011;1095;50.992;6.798;2023-07-28T15:52:23;4.65;;;2.70;;
2177;SDS011;1095;50.992;6.798;2023-07-28T15:54:51;3.55;;;2.22;;
2177;SDS011;1095;50.992;6.798;2023-07-28T15:57:17;4.70;;;2.15;;
2177;SDS011;1095;50.992;6.798;2023-07-28T15:59:44;5.68;;;2.42;;
2177;SDS011;1095;50.992;6.798;2023-07-28T16:02:11;2.60;;;2.05;;
2177;SDS011;1095;50.992;6.798;2023-07-28T16:04:40;3.97;;;2.47;;
2177;SDS011;1095;50.992;6.798;2023-07-28T16:07:07;4.30;;;2.42;;
2177;SDS011;1095;50.992;6.798;2023-07-28T16:09:35;3.78;;;2.22;;
2177;SDS011;1095;50.992;6.798;2023-07-28T16:12:02;5.32;;;2.08;;
2177;SDS011;1095;50.992;6.798;2023-07-28T16:14:29;4.18;;;2.78;;
2177;SDS011;1095;50.992;6.798;2023-07-28T16:16:56;4.90;;;2.10;;
2177;SDS011;1095;50.992;6.798;2023-07-28T16:19:22;3.03;;;2.08;;
2177;SDS011;1095;50.992;6.798;2023-07-28T16:21:49;2.28;;;1.63;;
2177;SDS011;1095;50.992;6.798;2023-07-28T16:24:18;1.65;;;1.50;;
2177;SDS011;1095;50.992;6.798;2023-07-28T16:26:47;2.25;;;2.00;;
2177;SDS011;1095;50.992;6.798;2023-07-28T16:29:13;3.78;;;1.52;;
2177;SDS011;1095;50.992;6.798;2023-07-28T16:31:40;2.83;;;1.55;;
2177;SDS011;1095;50.992;6.798;2023-07-28T16:34:06;1.33;;;1.27;;
2177;SDS011;1095;50.992;6.798;2023-07-28T16:36:33;3.53;;;2.72;;
2177;SDS011;1095;50.992;6.798;2023-07-28T16:38:59;4.72;;;2.70;;
2177;SDS011;1095;50.992;6.798;2023-07-28T16:41:27;3.72;;;2.58;;
2177;SDS011;1095;50.992;6.798;2023-07-28T16:43:55;2.67;;;2.05;;
2177;SDS011;1095;50.992;6.798;2023-07-28T16:46:21;2.92;;;2.10;;
2177;SDS011;1095;50.992;6.798;2023-07-28T16:48:48;2.40;;;2.03;;
2177;SDS011;1095;50.992;6.798;2023-07-28T16:51:14;2.90;;;2.55;;
2177;SDS011;1095;50.992;6.798;2023-07-28T16:53:41;3.00;;;2.28;;